sensor_id;sensor_type;location;lat;lon;timestamp;P1;durP1;ratioP1;P2;durP2;ratioP2
60665;SDS011;59128;44.642;21.188;2023-01-28T00:02:00;40.22;;;31.33;;
60665;SDS011;59128;44.642;21.188;2023-01-28T00:04:26;40.83;;;31.45;;
60665;SDS011;59128;44.642;21.188;2023-01-28T00:06:52;39.60;;;31.10;;
60665;SDS011;59128;44.642;21.188;2023-01-28T00:09:18;39.67;;;30.65;;
60665;SDS011;59128;44.642;21.188;2023-01-28T00:11:44;40.33;;;31.10;;
60665;SDS011;59128;44.642;21.188;2023-01-28T00:14:10;40.13;;;30.88;;
60665;SDS011;59128;44.642;21.188;2023-01-28T00:16:36;41.80;;;31.50;;
60665;SDS011;59128;44.642;21.188;2023-01-28T00:19:02;39.47;;;29.95;;
60665;SDS011;59128;44.642;21.188;2023-01-28T00:21:29;38.30;;;30.17;;
60665;SDS011;59128;44.642;21.188;2023-01-28T00:23:55;41.75;;;32.22;;
60665;SDS011;59128;44.642;21.188;2023-01-28T00:26:22;41.53;;;30.97;;
60665;SDS011;59128;44.642;21.188;2023-01-28T00:28:49;40.80;;;31.73;;
60665;SDS011;59128;44.642;21.188;2023-01-28T00:31:25;41.03;;;31.85;;
60665;SDS011;59128;44.642;21.188;2023-01-28T00:33:51;40.60;;;31.10;;
60665;SDS011;59128;44.642;21.188;2023-01-28T00:36:18;42.22;;;31.77;;
60665;SDS011;59128;44.642;21.188;2023-01-28T00:38:48;45.05;;;33.10;;
60665;SDS011;59128;44.642;21.188;2023-01-28T00:41:15;42.00;;;31.77;;
60665;SDS011;59128;44.642;21.188;2023-01-28T00:43:42;44.30;;;33.47;;
60665;SDS011;59128;44.642;21.188;2023-01-28T00:46:09;44.58;;;33.58;;
60665;SDS011;59128;44.642;21.188;2023-01-28T00:48:36;45.78;;;34.03;;
60665;SDS011;59128;44.642;21.188;2023-01-28T00:51:02;46.27;;;34.00;;
60665;SDS011;59128;44.642;21.188;2023-01-28T00:53:28;45.22;;;32.75;;
60665;SDS011;59128;44.642;21.188;2023-01-28T00:55:54;40.95;;;30.52;;
60665;SDS011;59128;44.642;21.188;2023-01-28T00:58:20;41.10;;;29.90;;
60665;SDS011;59128;44.642;21.188;2023-01-28T01:00:50;40.97;;;30.15;;
60665;SDS011;59128;44.642;21.188;2023-01-28T01:03:16;39.55;;;29.83;;
60665;SDS011;59128;44.642;21.188;2023-01-28T01:05:43;40.27;;;29.97;;
60665;SDS011;59128;44.642;21.188;2023-01-28T01:08:09;39.90;;;30.40;;
60665;SDS011;59128;44.642;21.188;2023-01-28T01:10:35;38.85;;;29.45;;
60665;SDS011;59128;44.642;21.188;2023-01-28T01:13:02;39.35;;;29.13;;
60665;SDS011;59128;44.642;21.188;2023-01-28T01:15:28;39.10;;;29.33;;
60665;SDS011;59128;44.642;21.188;2023-01-28T01:17:54;35.72;;;27.95;;
60665;SDS011;59128;44.642;21.188;2023-01-28T01:20:22;34.65;;;27.88;;
60665;SDS011;59128;44.642;21.188;2023-01-28T01:22:49;36.22;;;28.10;;
60665;SDS011;59128;44.642;21.188;2023-01-28T01:25:15;35.42;;;27.45;;
60665;SDS011;59128;44.642;21.188;2023-01-28T01:27:42;34.17;;;27.25;;
60665;SDS011;59128;44.642;21.188;2023-01-28T01:30:09;33.00;;;26.63;;
60665;SDS011;59128;44.642;21.188;2023-01-28T01:32:36;32.40;;;25.95;;
60665;SDS011;59128;44.642;21.188;2023-01-28T01:35:02;29.85;;;24.92;;
60665;SDS011;59128;44.642;21.188;2023-01-28T01:37:30;33.00;;;26.63;;
60665;SDS011;59128;44.642;21.188;2023-01-28T01:39:56;30.02;;;24.75;;
60665;SDS011;59128;44.642;21.188;2023-01-28T01:42:23;31.97;;;25.80;;
60665;SDS011;59128;44.642;21.188;2023-01-28T01:47:19;29.37;;;24.63;;
60665;SDS011;59128;44.642;21.188;2023-01-28T01:49:46;31.73;;;24.92;;
60665;SDS011;59128;44.642;21.188;2023-01-28T01:52:13;30.70;;;25.10;;
60665;SDS011;59128;44.642;21.188;2023-01-28T01:54:40;31.13;;;25.75;;
60665;SDS011;59128;44.642;21.188;2023-01-28T01:57:08;33.00;;;26.30;;
60665;SDS011;59128;44.642;21.188;2023-01-28T01:59:35;32.88;;;26.30;;
60665;SDS011;59128;44.642;21.188;2023-01-28T02:02:02;32.70;;;26.10;;
60665;SDS011;59128;44.642;21.188;2023-01-28T02:04:36;32.58;;;26.75;;
60665;SDS011;59128;44.642;21.188;2023-01-28T02:07:03;32.55;;;26.25;;
60665;SDS011;59128;44.642;21.188;2023-01-28T02:09:31;30.70;;;25.08;;
60665;SDS011;59128;44.642;21.188;2023-01-28T02:12:00;32.47;;;26.73;;
60665;SDS011;59128;44.642;21.188;2023-01-28T02:14:27;32.80;;;26.58;;
60665;SDS011;59128;44.642;21.188;2023-01-28T02:16:54;33.53;;;26.35;;
60665;SDS011;59128;44.642;21.188;2023-01-28T02:19:20;30.20;;;25.23;;
60665;SDS011;59128;44.642;21.188;2023-01-28T02:29:44;31.05;;;24.58;;
60665;SDS011;59128;44.642;21.188;2023-01-28T02:34:46;28.95;;;23.38;;
60665;SDS011;59128;44.642;21.188;2023-01-28T02:37:14;28.80;;;22.97;;
60665;SDS011;59128;44.642;21.188;2023-01-28T02:39:47;29.90;;;24.38;;
60665;SDS011;59128;44.642;21.188;2023-01-28T02:42:16;31.30;;;24.52;;
60665;SDS011;59128;44.642;21.188;2023-01-28T02:44:44;31.95;;;24.65;;
60665;SDS011;59128;44.642;21.188;2023-01-28T02:47:10;32.90;;;24.97;;
60665;SDS011;59128;44.642;21.188;2023-01-28T02:49:56;31.08;;;24.27;;
60665;SDS011;59128;44.642;21.188;2023-01-28T03:00:45;30.52;;;24.02;;
60665;SDS011;59128;44.642;21.188;2023-01-28T03:03:16;31.35;;;24.20;;
60665;SDS011;59128;44.642;21.188;2023-01-28T03:05:44;31.55;;;24.80;;
60665;SDS011;59128;44.642;21.188;2023-01-28T03:08:30;29.67;;;23.98;;
60665;SDS011;59128;44.642;21.188;2023-01-28T03:11:16;29.20;;;23.48;;
60665;SDS011;59128;44.642;21.188;2023-01-28T03:14:00;27.23;;;22.60;;
60665;SDS011;59128;44.642;21.188;2023-01-28T03:16:45;25.50;;;21.90;;
60665;SDS011;59128;44.642;21.188;2023-01-28T03:19:29;26.95;;;22.88;;
60665;SDS011;59128;44.642;21.188;2023-01-28T03:22:14;27.83;;;22.85;;
60665;SDS011;59128;44.642;21.188;2023-01-28T03:25:00;28.08;;;23.25;;
60665;SDS011;59128;44.642;21.188;2023-01-28T03:28:01;25.77;;;21.42;;
60665;SDS011;59128;44.642;21.188;2023-01-28T03:34:00;27.13;;;22.58;;
60665;SDS011;59128;44.642;21.188;2023-01-28T03:36:46;25.27;;;21.57;;
60665;SDS011;59128;44.642;21.188;2023-01-28T03:39:18;26.15;;;21.80;;
60665;SDS011;59128;44.642;21.188;2023-01-28T03:42:00;27.73;;;22.80;;
60665;SDS011;59128;44.642;21.188;2023-01-28T03:44:26;27.30;;;22.70;;
60665;SDS011;59128;44.642;21.188;2023-01-28T03:47:11;27.48;;;22.90;;
60665;SDS011;59128;44.642;21.188;2023-01-28T03:49:38;27.40;;;23.08;;
60665;SDS011;59128;44.642;21.188;2023-01-28T03:52:04;29.17;;;23.20;;
60665;SDS011;59128;44.642;21.188;2023-01-28T03:54:30;27.17;;;22.95;;
60665;SDS011;59128;44.642;21.188;2023-01-28T03:56:56;30.17;;;24.15;;
60665;SDS011;59128;44.642;21.188;2023-01-28T03:59:22;29.58;;;23.83;;
60665;SDS011;59128;44.642;21.188;2023-01-28T04:01:48;30.77;;;24.60;;
60665;SDS011;59128;44.642;21.188;2023-01-28T04:04:15;29.80;;;23.55;;
60665;SDS011;59128;44.642;21.188;2023-01-28T04:06:52;29.50;;;23.98;;
60665;SDS011;59128;44.642;21.188;2023-01-28T04:09:19;29.75;;;24.13;;
60665;SDS011;59128;44.642;21.188;2023-01-28T04:11:45;30.75;;;24.30;;
60665;SDS011;59128;44.642;21.188;2023-01-28T04:14:11;30.83;;;24.23;;
60665;SDS011;59128;44.642;21.188;2023-01-28T04:16:37;28.33;;;23.05;;
60665;SDS011;59128;44.642;21.188;2023-01-28T04:19:03;28.58;;;23.30;;
60665;SDS011;59128;44.642;21.188;2023-01-28T04:21:29;30.10;;;24.05;;
60665;SDS011;59128;44.642;21.188;2023-01-28T04:23:55;28.17;;;23.00;;
60665;SDS011;59128;44.642;21.188;2023-01-28T04:26:21;29.77;;;23.77;;
60665;SDS011;59128;44.642;21.188;2023-01-28T04:28:47;30.27;;;23.77;;
60665;SDS011;59128;44.642;21.188;2023-01-28T04:31:13;29.90;;;23.38;;
60665;SDS011;59128;44.642;21.188;2023-01-28T04:33:39;30.88;;;24.25;;
60665;SDS011;59128;44.642;21.188;2023-01-28T04:36:05;31.42;;;24.10;;
60665;SDS011;59128;44.642;21.188;2023-01-28T04:38:31;32.17;;;24.65;;
60665;SDS011;59128;44.642;21.188;2023-01-28T04:40:57;32.33;;;25.03;;
60665;SDS011;59128;44.642;21.188;2023-01-28T04:43:23;31.25;;;24.30;;
60665;SDS011;59128;44.642;21.188;2023-01-28T04:45:49;32.88;;;25.20;;
60665;SDS011;59128;44.642;21.188;2023-01-28T04:48:15;32.58;;;25.02;;
60665;SDS011;59128;44.642;21.188;2023-01-28T04:50:42;32.63;;;25.15;;
60665;SDS011;59128;44.642;21.188;2023-01-28T04:53:08;31.58;;;24.88;;
60665;SDS011;59128;44.642;21.188;2023-01-28T04:55:34;34.05;;;25.95;;
60665;SDS011;59128;44.642;21.188;2023-01-28T04:58:00;33.90;;;26.10;;
60665;SDS011;59128;44.642;21.188;2023-01-28T05:00:26;30.08;;;23.88;;
60665;SDS011;59128;44.642;21.188;2023-01-28T05:02:52;28.23;;;23.42;;
60665;SDS011;59128;44.642;21.188;2023-01-28T05:05:18;30.10;;;23.47;;
60665;SDS011;59128;44.642;21.188;2023-01-28T05:07:55;31.58;;;24.48;;
60665;SDS011;59128;44.642;21.188;2023-01-28T05:10:21;30.60;;;23.95;;
60665;SDS011;59128;44.642;21.188;2023-01-28T05:12:47;30.48;;;23.75;;
60665;SDS011;59128;44.642;21.188;2023-01-28T05:15:16;29.35;;;23.10;;
60665;SDS011;59128;44.642;21.188;2023-01-28T05:17:42;30.45;;;23.75;;
60665;SDS011;59128;44.642;21.188;2023-01-28T05:20:09;30.30;;;23.60;;
60665;SDS011;59128;44.642;21.188;2023-01-28T05:22:36;28.13;;;22.67;;
60665;SDS011;59128;44.642;21.188;2023-01-28T05:25:02;29.45;;;23.02;;
60665;SDS011;59128;44.642;21.188;2023-01-28T05:27:28;30.00;;;24.08;;
60665;SDS011;59128;44.642;21.188;2023-01-28T05:29:55;30.40;;;23.30;;
60665;SDS011;59128;44.642;21.188;2023-01-28T05:32:21;30.25;;;24.08;;
60665;SDS011;59128;44.642;21.188;2023-01-28T05:34:47;29.92;;;23.25;;
60665;SDS011;59128;44.642;21.188;2023-01-28T05:37:13;27.60;;;22.30;;
60665;SDS011;59128;44.642;21.188;2023-01-28T05:39:39;29.20;;;23.60;;
60665;SDS011;59128;44.642;21.188;2023-01-28T05:42:05;29.23;;;23.02;;
60665;SDS011;59128;44.642;21.188;2023-01-28T05:44:31;29.08;;;22.77;;
60665;SDS011;59128;44.642;21.188;2023-01-28T05:46:57;28.23;;;22.38;;
60665;SDS011;59128;44.642;21.188;2023-01-28T05:49:23;30.13;;;23.33;;
60665;SDS011;59128;44.642;21.188;2023-01-28T05:51:50;30.20;;;22.40;;
60665;SDS011;59128;44.642;21.188;2023-01-28T05:54:16;27.17;;;21.90;;
60665;SDS011;59128;44.642;21.188;2023-01-28T05:56:43;27.27;;;22.48;;
60665;SDS011;59128;44.642;21.188;2023-01-28T05:59:09;28.30;;;22.27;;
60665;SDS011;59128;44.642;21.188;2023-01-28T06:01:36;28.08;;;22.80;;
60665;SDS011;59128;44.642;21.188;2023-01-28T06:04:02;28.35;;;22.80;;
60665;SDS011;59128;44.642;21.188;2023-01-28T06:06:28;26.10;;;22.50;;
60665;SDS011;59128;44.642;21.188;2023-01-28T06:08:54;27.52;;;22.73;;
60665;SDS011;59128;44.642;21.188;2023-01-28T06:11:20;26.45;;;22.00;;
60665;SDS011;59128;44.642;21.188;2023-01-28T06:13:46;26.80;;;21.98;;
60665;SDS011;59128;44.642;21.188;2023-01-28T06:16:12;27.43;;;22.13;;
60665;SDS011;59128;44.642;21.188;2023-01-28T06:18:38;26.95;;;21.75;;
60665;SDS011;59128;44.642;21.188;2023-01-28T06:21:05;27.23;;;21.83;;
60665;SDS011;59128;44.642;21.188;2023-01-28T06:23:31;27.77;;;23.42;;
60665;SDS011;59128;44.642;21.188;2023-01-28T06:25:57;28.92;;;23.58;;
60665;SDS011;59128;44.642;21.188;2023-01-28T06:28:23;29.90;;;24.20;;
60665;SDS011;59128;44.642;21.188;2023-01-28T06:30:50;28.42;;;23.17;;
60665;SDS011;59128;44.642;21.188;2023-01-28T06:33:17;26.38;;;22.38;;
60665;SDS011;59128;44.642;21.188;2023-01-28T06:35:43;29.60;;;24.27;;
60665;SDS011;59128;44.642;21.188;2023-01-28T06:38:09;29.10;;;23.70;;
60665;SDS011;59128;44.642;21.188;2023-01-28T06:40:35;30.55;;;24.10;;
60665;SDS011;59128;44.642;21.188;2023-01-28T06:43:01;30.80;;;23.77;;
60665;SDS011;59128;44.642;21.188;2023-01-28T06:45:27;30.95;;;25.25;;
60665;SDS011;59128;44.642;21.188;2023-01-28T06:47:53;32.65;;;27.25;;
60665;SDS011;59128;44.642;21.188;2023-01-28T06:50:19;32.55;;;26.08;;
60665;SDS011;59128;44.642;21.188;2023-01-28T06:52:45;34.30;;;26.70;;
60665;SDS011;59128;44.642;21.188;2023-01-28T06:55:11;33.58;;;25.67;;
60665;SDS011;59128;44.642;21.188;2023-01-28T06:57:38;32.08;;;25.23;;
60665;SDS011;59128;44.642;21.188;2023-01-28T07:00:05;31.98;;;24.80;;
60665;SDS011;59128;44.642;21.188;2023-01-28T07:02:31;31.60;;;24.70;;
60665;SDS011;59128;44.642;21.188;2023-01-28T07:04:57;31.73;;;24.87;;
60665;SDS011;59128;44.642;21.188;2023-01-28T07:07:23;32.63;;;24.40;;
60665;SDS011;59128;44.642;21.188;2023-01-28T07:09:49;32.58;;;24.63;;
60665;SDS011;59128;44.642;21.188;2023-01-28T07:12:15;32.90;;;25.13;;
60665;SDS011;59128;44.642;21.188;2023-01-28T07:14:41;33.95;;;25.27;;
60665;SDS011;59128;44.642;21.188;2023-01-28T07:17:07;31.45;;;24.35;;
60665;SDS011;59128;44.642;21.188;2023-01-28T07:19:33;31.45;;;24.38;;
60665;SDS011;59128;44.642;21.188;2023-01-28T07:21:59;31.50;;;24.17;;
60665;SDS011;59128;44.642;21.188;2023-01-28T07:24:27;34.60;;;24.47;;
60665;SDS011;59128;44.642;21.188;2023-01-28T07:26:53;30.80;;;23.73;;
60665;SDS011;59128;44.642;21.188;2023-01-28T07:29:19;33.93;;;24.43;;
60665;SDS011;59128;44.642;21.188;2023-01-28T07:31:45;31.80;;;23.38;;
60665;SDS011;59128;44.642;21.188;2023-01-28T07:34:11;31.73;;;23.43;;
60665;SDS011;59128;44.642;21.188;2023-01-28T07:36:37;31.58;;;23.77;;
60665;SDS011;59128;44.642;21.188;2023-01-28T07:39:03;30.40;;;22.83;;
60665;SDS011;59128;44.642;21.188;2023-01-28T07:41:31;32.63;;;23.60;;
60665;SDS011;59128;44.642;21.188;2023-01-28T07:43:57;33.63;;;24.05;;
60665;SDS011;59128;44.642;21.188;2023-01-28T07:46:23;35.10;;;24.05;;
60665;SDS011;59128;44.642;21.188;2023-01-28T07:48:49;33.70;;;24.52;;
60665;SDS011;59128;44.642;21.188;2023-01-28T07:51:15;33.97;;;24.15;;
60665;SDS011;59128;44.642;21.188;2023-01-28T07:53:41;32.85;;;24.02;;
60665;SDS011;59128;44.642;21.188;2023-01-28T07:56:07;37.47;;;25.75;;
60665;SDS011;59128;44.642;21.188;2023-01-28T07:58:33;35.35;;;24.60;;
60665;SDS011;59128;44.642;21.188;2023-01-28T08:00:59;36.58;;;24.92;;
60665;SDS011;59128;44.642;21.188;2023-01-28T08:03:26;39.20;;;26.20;;
60665;SDS011;59128;44.642;21.188;2023-01-28T08:05:53;36.70;;;25.25;;
60665;SDS011;59128;44.642;21.188;2023-01-28T08:08:20;40.63;;;27.23;;
60665;SDS011;59128;44.642;21.188;2023-01-28T08:10:46;40.30;;;27.05;;
60665;SDS011;59128;44.642;21.188;2023-01-28T08:13:13;41.47;;;28.10;;
60665;SDS011;59128;44.642;21.188;2023-01-28T08:15:39;41.58;;;27.98;;
60665;SDS011;59128;44.642;21.188;2023-01-28T08:18:06;40.88;;;27.73;;
60665;SDS011;59128;44.642;21.188;2023-01-28T08:20:33;40.42;;;28.15;;
60665;SDS011;59128;44.642;21.188;2023-01-28T08:23:06;42.20;;;27.92;;
60665;SDS011;59128;44.642;21.188;2023-01-28T08:25:32;42.10;;;28.60;;
60665;SDS011;59128;44.642;21.188;2023-01-28T08:27:58;43.38;;;28.38;;
60665;SDS011;59128;44.642;21.188;2023-01-28T08:30:24;41.25;;;27.75;;
60665;SDS011;59128;44.642;21.188;2023-01-28T08:32:50;39.50;;;27.52;;
60665;SDS011;59128;44.642;21.188;2023-01-28T08:35:16;41.38;;;27.70;;
60665;SDS011;59128;44.642;21.188;2023-01-28T08:37:42;42.60;;;27.77;;
60665;SDS011;59128;44.642;21.188;2023-01-28T08:40:08;40.28;;;27.27;;
60665;SDS011;59128;44.642;21.188;2023-01-28T08:42:34;43.28;;;28.58;;
60665;SDS011;59128;44.642;21.188;2023-01-28T08:45:00;40.45;;;26.95;;
60665;SDS011;59128;44.642;21.188;2023-01-28T08:47:27;39.80;;;26.58;;
60665;SDS011;59128;44.642;21.188;2023-01-28T08:49:53;41.03;;;27.75;;
60665;SDS011;59128;44.642;21.188;2023-01-28T08:52:19;38.42;;;26.88;;
60665;SDS011;59128;44.642;21.188;2023-01-28T08:54:45;39.08;;;26.80;;
60665;SDS011;59128;44.642;21.188;2023-01-28T08:57:11;38.90;;;26.05;;
60665;SDS011;59128;44.642;21.188;2023-01-28T08:59:37;40.05;;;26.15;;
60665;SDS011;59128;44.642;21.188;2023-01-28T09:02:10;38.13;;;25.83;;
60665;SDS011;59128;44.642;21.188;2023-01-28T09:04:36;38.17;;;26.17;;
60665;SDS011;59128;44.642;21.188;2023-01-28T09:07:02;38.35;;;26.30;;
60665;SDS011;59128;44.642;21.188;2023-01-28T09:09:29;37.40;;;26.70;;
60665;SDS011;59128;44.642;21.188;2023-01-28T09:11:55;37.47;;;26.65;;
60665;SDS011;59128;44.642;21.188;2023-01-28T09:14:21;37.45;;;26.45;;
60665;SDS011;59128;44.642;21.188;2023-01-28T09:16:47;39.85;;;27.63;;
60665;SDS011;59128;44.642;21.188;2023-01-28T09:19:13;36.87;;;26.87;;
60665;SDS011;59128;44.642;21.188;2023-01-28T09:21:39;39.72;;;27.77;;
60665;SDS011;59128;44.642;21.188;2023-01-28T09:24:05;42.08;;;28.33;;
60665;SDS011;59128;44.642;21.188;2023-01-28T09:26:35;43.35;;;28.77;;
60665;SDS011;59128;44.642;21.188;2023-01-28T09:29:02;43.28;;;28.92;;
60665;SDS011;59128;44.642;21.188;2023-01-28T09:31:28;44.75;;;28.42;;
60665;SDS011;59128;44.642;21.188;2023-01-28T09:33:54;41.70;;;28.15;;
60665;SDS011;59128;44.642;21.188;2023-01-28T09:36:21;40.35;;;27.38;;
60665;SDS011;59128;44.642;21.188;2023-01-28T09:38:48;41.20;;;28.23;;
60665;SDS011;59128;44.642;21.188;2023-01-28T09:46:31;41.03;;;27.58;;
60665;SDS011;59128;44.642;21.188;2023-01-28T09:48:57;45.65;;;29.70;;
60665;SDS011;59128;44.642;21.188;2023-01-28T09:53:51;43.53;;;28.67;;
60665;SDS011;59128;44.642;21.188;2023-01-28T09:56:38;45.33;;;28.65;;
60665;SDS011;59128;44.642;21.188;2023-01-28T09:59:14;46.72;;;29.75;;
60665;SDS011;59128;44.642;21.188;2023-01-28T10:12:30;45.97;;;30.45;;
60665;SDS011;59128;44.642;21.188;2023-01-28T10:17:44;45.65;;;30.38;;
60665;SDS011;59128;44.642;21.188;2023-01-28T10:22:38;45.15;;;29.98;;
60665;SDS011;59128;44.642;21.188;2023-01-28T10:25:07;44.53;;;30.35;;
60665;SDS011;59128;44.642;21.188;2023-01-28T10:27:40;42.67;;;29.23;;
60665;SDS011;59128;44.642;21.188;2023-01-28T10:30:26;41.78;;;28.83;;
60665;SDS011;59128;44.642;21.188;2023-01-28T10:33:02;41.50;;;28.83;;
60665;SDS011;59128;44.642;21.188;2023-01-28T10:35:33;42.38;;;29.58;;
60665;SDS011;59128;44.642;21.188;2023-01-28T10:38:01;39.15;;;28.80;;
60665;SDS011;59128;44.642;21.188;2023-01-28T10:40:31;38.75;;;28.45;;
60665;SDS011;59128;44.642;21.188;2023-01-28T10:42:57;40.78;;;29.70;;
60665;SDS011;59128;44.642;21.188;2023-01-28T10:45:24;40.77;;;29.70;;
60665;SDS011;59128;44.642;21.188;2023-01-28T10:48:07;39.03;;;29.52;;
60665;SDS011;59128;44.642;21.188;2023-01-28T10:50:38;40.45;;;30.35;;
60665;SDS011;59128;44.642;21.188;2023-01-28T10:53:14;38.45;;;29.52;;
60665;SDS011;59128;44.642;21.188;2023-01-28T10:55:48;36.83;;;28.25;;
60665;SDS011;59128;44.642;21.188;2023-01-28T10:58:25;38.78;;;29.05;;
60665;SDS011;59128;44.642;21.188;2023-01-28T11:00:52;38.17;;;28.92;;
60665;SDS011;59128;44.642;21.188;2023-01-28T11:03:19;37.22;;;28.70;;
60665;SDS011;59128;44.642;21.188;2023-01-28T11:05:53;39.88;;;28.40;;
60665;SDS011;59128;44.642;21.188;2023-01-28T11:08:19;37.83;;;28.08;;
60665;SDS011;59128;44.642;21.188;2023-01-28T11:10:46;37.58;;;28.35;;
60665;SDS011;59128;44.642;21.188;2023-01-28T11:13:17;38.53;;;28.80;;
60665;SDS011;59128;44.642;21.188;2023-01-28T11:18:25;38.55;;;28.48;;
60665;SDS011;59128;44.642;21.188;2023-01-28T11:21:02;40.33;;;28.48;;
60665;SDS011;59128;44.642;21.188;2023-01-28T11:23:30;37.80;;;28.08;;
60665;SDS011;59128;44.642;21.188;2023-01-28T11:25:59;35.53;;;27.42;;
60665;SDS011;59128;44.642;21.188;2023-01-28T11:28:25;38.33;;;28.50;;
60665;SDS011;59128;44.642;21.188;2023-01-28T11:30:52;36.33;;;27.60;;
60665;SDS011;59128;44.642;21.188;2023-01-28T11:33:23;37.03;;;28.30;;
60665;SDS011;59128;44.642;21.188;2023-01-28T11:35:54;37.20;;;27.90;;
60665;SDS011;59128;44.642;21.188;2023-01-28T11:38:21;38.33;;;28.38;;
60665;SDS011;59128;44.642;21.188;2023-01-28T11:40:48;36.38;;;27.50;;
60665;SDS011;59128;44.642;21.188;2023-01-28T11:43:15;35.42;;;26.63;;
60665;SDS011;59128;44.642;21.188;2023-01-28T11:45:43;38.78;;;28.52;;
60665;SDS011;59128;44.642;21.188;2023-01-28T11:50:39;38.78;;;28.73;;
60665;SDS011;59128;44.642;21.188;2023-01-28T12:03:45;40.30;;;29.27;;
60665;SDS011;59128;44.642;21.188;2023-01-28T12:06:27;38.45;;;28.63;;
60665;SDS011;59128;44.642;21.188;2023-01-28T12:28:06;46.90;;;32.42;;
60665;SDS011;59128;44.642;21.188;2023-01-28T12:35:34;47.27;;;33.23;;
60665;SDS011;59128;44.642;21.188;2023-01-28T12:38:15;45.65;;;32.45;;
60665;SDS011;59128;44.642;21.188;2023-01-28T12:40:54;49.78;;;33.53;;
60665;SDS011;59128;44.642;21.188;2023-01-28T12:45:54;50.38;;;34.10;;
60665;SDS011;59128;44.642;21.188;2023-01-28T12:48:23;51.28;;;34.75;;
60665;SDS011;59128;44.642;21.188;2023-01-28T12:51:02;50.28;;;35.05;;
60665;SDS011;59128;44.642;21.188;2023-01-28T12:53:37;53.80;;;37.20;;
60665;SDS011;59128;44.642;21.188;2023-01-28T13:01:02;55.00;;;36.78;;
60665;SDS011;59128;44.642;21.188;2023-01-28T13:03:38;54.38;;;35.55;;
60665;SDS011;59128;44.642;21.188;2023-01-28T13:06:07;53.78;;;36.13;;
60665;SDS011;59128;44.642;21.188;2023-01-28T13:08:33;56.20;;;35.92;;
60665;SDS011;59128;44.642;21.188;2023-01-28T13:11:00;53.67;;;35.70;;
60665;SDS011;59128;44.642;21.188;2023-01-28T13:13:35;52.92;;;36.40;;
60665;SDS011;59128;44.642;21.188;2023-01-28T13:16:01;50.75;;;34.65;;
60665;SDS011;59128;44.642;21.188;2023-01-28T13:18:33;55.50;;;35.58;;
60665;SDS011;59128;44.642;21.188;2023-01-28T13:21:00;51.42;;;35.10;;
60665;SDS011;59128;44.642;21.188;2023-01-28T13:25:55;49.83;;;34.70;;
60665;SDS011;59128;44.642;21.188;2023-01-28T13:28:29;50.63;;;34.33;;
60665;SDS011;59128;44.642;21.188;2023-01-28T13:31:03;51.83;;;34.45;;
60665;SDS011;59128;44.642;21.188;2023-01-28T13:33:30;48.25;;;32.78;;
60665;SDS011;59128;44.642;21.188;2023-01-28T13:35:57;46.38;;;31.50;;
60665;SDS011;59128;44.642;21.188;2023-01-28T13:38:26;45.73;;;31.77;;
60665;SDS011;59128;44.642;21.188;2023-01-28T13:40:53;46.63;;;32.00;;
60665;SDS011;59128;44.642;21.188;2023-01-28T13:43:24;45.53;;;32.05;;
60665;SDS011;59128;44.642;21.188;2023-01-28T13:45:55;46.65;;;31.48;;
60665;SDS011;59128;44.642;21.188;2023-01-28T13:48:28;47.80;;;31.88;;
60665;SDS011;59128;44.642;21.188;2023-01-28T13:50:56;52.17;;;34.10;;
60665;SDS011;59128;44.642;21.188;2023-01-28T13:55:54;56.83;;;35.00;;
60665;SDS011;59128;44.642;21.188;2023-01-28T14:14:08;63.75;;;36.17;;
60665;SDS011;59128;44.642;21.188;2023-01-28T14:19:25;68.72;;;38.28;;
60665;SDS011;59128;44.642;21.188;2023-01-28T14:21:51;67.57;;;37.45;;
60665;SDS011;59128;44.642;21.188;2023-01-28T14:24:18;72.20;;;39.47;;
60665;SDS011;59128;44.642;21.188;2023-01-28T14:27:06;71.20;;;38.17;;
60665;SDS011;59128;44.642;21.188;2023-01-28T14:32:24;67.32;;;38.20;;
60665;SDS011;59128;44.642;21.188;2023-01-28T14:34:54;69.10;;;38.67;;
60665;SDS011;59128;44.642;21.188;2023-01-28T14:37:21;68.57;;;38.05;;
60665;SDS011;59128;44.642;21.188;2023-01-28T14:42:22;64.20;;;37.72;;
60665;SDS011;59128;44.642;21.188;2023-01-28T14:50:08;63.33;;;37.55;;
60665;SDS011;59128;44.642;21.188;2023-01-28T14:55:52;69.97;;;39.25;;
60665;SDS011;59128;44.642;21.188;2023-01-28T14:58:43;68.80;;;38.10;;
60665;SDS011;59128;44.642;21.188;2023-01-28T15:01:18;66.90;;;37.88;;
60665;SDS011;59128;44.642;21.188;2023-01-28T15:03:44;66.53;;;38.10;;
60665;SDS011;59128;44.642;21.188;2023-01-28T15:06:14;66.15;;;38.75;;
60665;SDS011;59128;44.642;21.188;2023-01-28T15:08:41;67.82;;;40.03;;
60665;SDS011;59128;44.642;21.188;2023-01-28T15:11:08;68.43;;;40.30;;
60665;SDS011;59128;44.642;21.188;2023-01-28T15:13:36;74.35;;;43.00;;
60665;SDS011;59128;44.642;21.188;2023-01-28T15:16:03;77.15;;;43.42;;
60665;SDS011;59128;44.642;21.188;2023-01-28T15:18:31;71.90;;;42.67;;
60665;SDS011;59128;44.642;21.188;2023-01-28T15:20:58;76.07;;;43.97;;
60665;SDS011;59128;44.642;21.188;2023-01-28T15:23:26;74.43;;;42.00;;
60665;SDS011;59128;44.642;21.188;2023-01-28T15:25:52;76.82;;;43.03;;
60665;SDS011;59128;44.642;21.188;2023-01-28T15:28:29;75.72;;;43.38;;
60665;SDS011;59128;44.642;21.188;2023-01-28T15:30:56;79.70;;;45.10;;
60665;SDS011;59128;44.642;21.188;2023-01-28T15:33:23;79.50;;;45.77;;
60665;SDS011;59128;44.642;21.188;2023-01-28T15:35:50;78.68;;;44.70;;
60665;SDS011;59128;44.642;21.188;2023-01-28T15:38:17;76.88;;;45.25;;
60665;SDS011;59128;44.642;21.188;2023-01-28T15:40:44;73.90;;;43.65;;
60665;SDS011;59128;44.642;21.188;2023-01-28T15:43:18;78.13;;;46.13;;
60665;SDS011;59128;44.642;21.188;2023-01-28T15:45:45;76.93;;;45.08;;
60665;SDS011;59128;44.642;21.188;2023-01-28T15:48:12;77.80;;;44.92;;
60665;SDS011;59128;44.642;21.188;2023-01-28T15:50:39;79.55;;;46.08;;
60665;SDS011;59128;44.642;21.188;2023-01-28T15:53:08;80.72;;;46.80;;
60665;SDS011;59128;44.642;21.188;2023-01-28T15:55:36;86.28;;;48.17;;
60665;SDS011;59128;44.642;21.188;2023-01-28T15:58:37;84.60;;;48.17;;
60665;SDS011;59128;44.642;21.188;2023-01-28T16:03:33;76.43;;;46.90;;
60665;SDS011;59128;44.642;21.188;2023-01-28T16:10:53;83.38;;;50.85;;
60665;SDS011;59128;44.642;21.188;2023-01-28T16:13:21;79.78;;;48.50;;
60665;SDS011;59128;44.642;21.188;2023-01-28T16:15:48;72.90;;;46.47;;
60665;SDS011;59128;44.642;21.188;2023-01-28T16:18:57;77.30;;;47.80;;
60665;SDS011;59128;44.642;21.188;2023-01-28T16:21:05;75.07;;;47.40;;
60665;SDS011;59128;44.642;21.188;2023-01-28T16:23:31;80.82;;;48.55;;
60665;SDS011;59128;44.642;21.188;2023-01-28T16:25:58;81.40;;;48.00;;
60665;SDS011;59128;44.642;21.188;2023-01-28T16:28:25;76.68;;;47.75;;
60665;SDS011;59128;44.642;21.188;2023-01-28T16:30:51;76.80;;;48.63;;
60665;SDS011;59128;44.642;21.188;2023-01-28T16:33:20;80.37;;;53.13;;
60665;SDS011;59128;44.642;21.188;2023-01-28T16:35:46;76.03;;;48.55;;
60665;SDS011;59128;44.642;21.188;2023-01-28T16:38:12;82.25;;;50.05;;